createdAt,value
2018-08-31T00:01:32.687Z,9.27
2018-08-31T00:04:45.701Z,4.80
2018-08-31T00:07:39.779Z,5.73
2018-08-31T00:12:28.944Z,4.50
2018-08-31T00:14:58.121Z,5.70
2018-08-31T00:17:27.716Z,5.53
2018-08-31T00:19:56.552Z,4.70
2018-08-31T00:22:26.116Z,5.83
2018-08-31T00:26:14.131Z,4.90
2018-08-31T00:29:46.448Z,6.17
2018-08-31T00:34:35.947Z,4.63
2018-08-31T00:37:21.523Z,4.00
2018-08-31T00:41:12.197Z,5.13
2018-08-31T00:45:53.329Z,5.20
2018-08-31T00:48:22.530Z,7.63
2018-08-31T00:50:51.544Z,7.40
2018-08-31T00:53:20.700Z,6.90
2018-08-31T00:55:50.420Z,9.17
2018-08-31T00:58:20.664Z,7.67
2018-08-31T01:00:50.206Z,5.77
2018-08-31T01:03:18.870Z,6.57
2018-08-31T01:05:47.877Z,6.97
2018-08-31T01:08:16.684Z,6.63
2018-08-31T01:10:45.679Z,6.53
2018-08-31T01:13:14.477Z,10.53
2018-08-31T01:15:48.761Z,5.10
2018-08-31T01:18:21.966Z,5.00
2018-08-31T01:21:00.017Z,5.77
2018-08-31T01:23:44.032Z,5.10
2018-08-31T01:31:56.185Z,5.27
2018-08-31T01:34:33.996Z,9.33
2018-08-31T01:37:05.838Z,4.70
2018-08-31T01:39:36.029Z,5.20
2018-08-31T01:42:16.524Z,6.07
2018-08-31T01:44:50.813Z,4.17
2018-08-31T01:50:22.825Z,6.50
2018-08-31T01:53:00.298Z,10.20
2018-08-31T01:55:34.800Z,6.10
2018-08-31T01:58:16.450Z,5.73
2018-08-31T02:00:51.765Z,7.90
2018-08-31T02:03:27.075Z,9.40
2018-08-31T02:06:03.696Z,7.30
2018-08-31T02:08:42.986Z,3.80
2018-08-31T02:13:55.997Z,8.00
2018-08-31T02:16:28.474Z,4.40
2018-08-31T02:18:58.129Z,6.43
2018-08-31T02:21:27.315Z,6.73
2018-08-31T02:23:57.537Z,7.33
2018-08-31T02:26:27.770Z,5.47
2018-08-31T02:28:56.805Z,5.50
2018-08-31T02:31:26.308Z,6.17
2018-08-31T02:33:55.048Z,7.53
2018-08-31T02:36:24.716Z,5.50
2018-08-31T02:38:53.644Z,9.10
2018-08-31T02:41:22.616Z,11.20
2018-08-31T02:43:51.660Z,6.73
2018-08-31T02:46:22.180Z,7.20
2018-08-31T02:48:52.371Z,6.67
2018-08-31T02:51:21.623Z,6.20
2018-08-31T02:53:51.085Z,4.13
2018-08-31T02:56:20.379Z,6.17
2018-08-31T02:58:49.103Z,8.10
2018-08-31T03:01:17.725Z,8.00
2018-08-31T03:03:47.992Z,6.50
2018-08-31T03:06:19.069Z,6.33
2018-08-31T03:08:48.517Z,10.40
2018-08-31T03:11:17.453Z,6.43
2018-08-31T03:13:47.538Z,6.30
2018-08-31T03:16:17.010Z,5.90
2018-08-31T03:18:46.797Z,6.67
2018-08-31T03:21:15.766Z,5.77
2018-08-31T03:23:44.369Z,5.10
2018-08-31T03:26:13.558Z,5.90
2018-08-31T03:28:42.988Z,6.50
2018-08-31T03:31:11.687Z,9.50
2018-08-31T03:33:41.506Z,8.73
2018-08-31T03:36:11.011Z,7.70
2018-08-31T03:38:40.543Z,7.13
2018-08-31T03:41:09.454Z,8.97
2018-08-31T03:43:39.164Z,9.60
2018-08-31T03:46:09.390Z,10.13
2018-08-31T03:48:38.390Z,10.77
2018-08-31T03:51:07.756Z,8.97
2018-08-31T03:53:36.801Z,6.87
2018-08-31T03:56:06.607Z,9.50
2018-08-31T03:58:36.466Z,10.20
2018-08-31T04:01:07.375Z,7.23
2018-08-31T04:03:36.928Z,5.83
2018-08-31T04:06:05.856Z,6.60
2018-08-31T04:08:34.495Z,11.43
2018-08-31T04:11:04.843Z,6.07
2018-08-31T04:13:33.567Z,8.77
2018-08-31T04:16:02.233Z,7.13
2018-08-31T04:18:31.210Z,6.23
2018-08-31T04:20:59.942Z,8.53
2018-08-31T04:23:28.610Z,9.53
2018-08-31T04:25:57.713Z,8.47
2018-08-31T04:28:26.511Z,10.80
2018-08-31T04:30:57.208Z,6.40
2018-08-31T04:33:26.276Z,7.97
2018-08-31T04:35:56.780Z,8.70
2018-08-31T04:38:26.483Z,11.93
2018-08-31T04:40:55.776Z,7.60
2018-08-31T04:43:24.593Z,8.00
2018-08-31T04:45:53.222Z,7.17
2018-08-31T04:48:22.773Z,9.37
2018-08-31T04:50:51.525Z,10.10
2018-08-31T04:53:20.135Z,12.37
2018-08-31T04:55:48.784Z,12.63
2018-08-31T04:58:17.454Z,10.60
2018-08-31T05:00:46.691Z,11.53
2018-08-31T05:03:15.410Z,13.73
2018-08-31T05:05:44.244Z,10.23
2018-08-31T05:08:19.944Z,12.00
2018-08-31T05:10:48.872Z,13.87
2018-08-31T05:13:17.506Z,10.20
2018-08-31T05:15:47.308Z,11.30
2018-08-31T05:18:17.662Z,11.20
2018-08-31T05:20:46.652Z,11.70
2018-08-31T05:23:17.360Z,9.40
2018-08-31T05:25:46.832Z,13.40
2018-08-31T05:28:16.561Z,11.57
2018-08-31T05:30:45.870Z,10.47
2018-08-31T05:33:15.336Z,10.20
2018-08-31T05:35:44.673Z,11.90
2018-08-31T05:38:13.423Z,11.23
2018-08-31T05:40:42.384Z,13.67
2018-08-31T05:43:11.053Z,10.27
2018-08-31T05:45:41.821Z,9.70
2018-08-31T05:48:12.587Z,11.00
2018-08-31T05:50:41.873Z,11.17
2018-08-31T05:53:11.127Z,12.50
2018-08-31T05:55:40.453Z,10.73
2018-08-31T05:58:09.406Z,12.10
2018-08-31T06:00:38.237Z,14.57
2018-08-31T06:03:07.460Z,11.90
2018-08-31T06:05:36.236Z,9.73
2018-08-31T06:08:04.914Z,10.50
2018-08-31T06:10:33.670Z,12.00
2018-08-31T06:13:03.304Z,11.90
2018-08-31T06:15:33.888Z,17.43
2018-08-31T06:18:03.450Z,13.70
2018-08-31T06:20:33.311Z,12.90
2018-08-31T06:23:03.131Z,12.60
2018-08-31T06:25:33.329Z,10.43
2018-08-31T06:28:03.227Z,11.10
2018-08-31T06:30:31.909Z,11.67
2018-08-31T06:33:07.992Z,12.87
2018-08-31T06:35:37.422Z,14.00
2018-08-31T06:38:08.872Z,9.10
2018-08-31T06:40:38.456Z,10.40
2018-08-31T06:45:46.357Z,8.47
2018-08-31T06:48:16.581Z,10.60
2018-08-31T06:50:46.328Z,9.23
2018-08-31T06:53:15.041Z,10.40
2018-08-31T06:55:43.638Z,10.23
2018-08-31T06:58:12.234Z,12.97
2018-08-31T07:00:43.201Z,8.10
2018-08-31T07:03:12.824Z,7.53
2018-08-31T07:05:42.005Z,10.10
2018-08-31T07:08:12.337Z,7.17
2018-08-31T07:10:41.788Z,8.73
2018-08-31T07:13:11.086Z,8.90
2018-08-31T07:15:40.696Z,8.60
2018-08-31T07:18:09.671Z,7.13
2018-08-31T07:20:39.827Z,7.47
2018-08-31T07:23:08.545Z,6.33
2018-08-31T07:25:37.293Z,9.87
2018-08-31T07:28:05.951Z,7.00
2018-08-31T07:30:34.805Z,6.80
2018-08-31T07:33:04.022Z,9.23
2018-08-31T07:35:32.684Z,6.87
2018-08-31T07:38:02.264Z,8.60
2018-08-31T07:40:31.164Z,6.90
2018-08-31T07:42:59.964Z,7.53
2018-08-31T07:45:29.657Z,5.50
2018-08-31T07:47:58.451Z,5.63
2018-08-31T07:50:27.428Z,7.17
2018-08-31T07:52:57.293Z,5.63
2018-08-31T07:55:26.137Z,7.83
2018-08-31T07:57:54.750Z,4.93
2018-08-31T08:00:25.682Z,5.03
2018-08-31T08:02:55.041Z,5.40
2018-08-31T08:05:25.399Z,6.90
2018-08-31T08:07:54.135Z,7.37
2018-08-31T08:10:23.575Z,6.30
2018-08-31T08:12:52.299Z,5.30
2018-08-31T08:15:22.929Z,5.77
2018-08-31T08:17:52.004Z,7.40
2018-08-31T08:20:21.488Z,9.30
2018-08-31T08:22:53.301Z,6.07
2018-08-31T08:25:22.223Z,3.60
2018-08-31T08:27:50.975Z,3.80
2018-08-31T08:30:20.064Z,5.03
2018-08-31T08:35:25.699Z,4.80
2018-08-31T08:37:58.416Z,5.10
2018-08-31T08:40:27.987Z,4.13
2018-08-31T08:42:57.267Z,5.20
2018-08-31T08:45:26.135Z,3.23
2018-08-31T08:47:56.407Z,6.23
2018-08-31T08:50:25.058Z,2.73
2018-08-31T08:52:55.461Z,2.90
2018-08-31T08:55:25.688Z,4.43
2018-08-31T08:57:55.056Z,4.77
2018-08-31T09:00:24.908Z,3.40
2018-08-31T09:02:54.972Z,5.47
2018-08-31T09:08:12.290Z,2.77
2018-08-31T09:10:41.037Z,2.90
2018-08-31T09:13:12.629Z,4.10
2018-08-31T09:15:44.039Z,3.47
2018-08-31T09:18:14.925Z,4.37
2018-08-31T09:20:43.877Z,2.80
2018-08-31T09:23:14.240Z,4.57
2018-08-31T09:25:43.826Z,3.77
2018-08-31T09:28:13.820Z,4.47
2018-08-31T09:30:46.063Z,3.80
2018-08-31T09:33:17.534Z,3.77
2018-08-31T09:35:47.059Z,4.70
2018-08-31T09:38:15.880Z,3.57
2018-08-31T09:40:45.021Z,2.83
2018-08-31T09:43:14.950Z,4.57
2018-08-31T09:45:44.483Z,3.00
2018-08-31T09:48:15.531Z,2.67
2018-08-31T09:50:44.403Z,5.90
2018-08-31T09:53:14.472Z,5.10
2018-08-31T09:55:44.320Z,3.40
2018-08-31T09:58:14.654Z,2.90
2018-08-31T10:00:52.349Z,2.60
2018-08-31T10:03:22.866Z,4.97
2018-08-31T10:05:55.039Z,4.53
2018-08-31T10:08:26.704Z,3.53
2018-08-31T10:10:57.425Z,6.13
2018-08-31T10:13:27.992Z,3.33
2018-08-31T10:15:58.786Z,4.37
2018-08-31T10:18:28.297Z,3.53
2018-08-31T10:20:57.252Z,3.97
2018-08-31T10:23:26.671Z,4.30
2018-08-31T10:25:56.507Z,4.40
2018-08-31T10:28:29.592Z,2.53
2018-08-31T10:31:00.950Z,4.53
2018-08-31T10:33:29.573Z,7.03
2018-08-31T10:35:58.441Z,4.00
2018-08-31T10:38:27.417Z,3.43
2018-08-31T10:40:57.791Z,4.13
2018-08-31T10:43:27.909Z,4.07
2018-08-31T10:45:56.725Z,5.03
2018-08-31T10:48:26.300Z,5.00
2018-08-31T10:50:55.001Z,2.60
2018-08-31T10:53:23.601Z,2.40
2018-08-31T10:55:54.271Z,3.20
2018-08-31T10:58:22.866Z,3.07
2018-08-31T11:00:52.017Z,1.80
2018-08-31T11:03:21.486Z,3.43
2018-08-31T11:05:50.171Z,3.63
2018-08-31T11:08:19.885Z,2.50
2018-08-31T11:10:48.472Z,4.67
2018-08-31T11:13:17.780Z,3.70
2018-08-31T11:15:47.512Z,3.23
2018-08-31T11:18:16.318Z,4.07
2018-08-31T11:20:45.019Z,5.27
2018-08-31T11:23:13.597Z,3.70
2018-08-31T11:25:42.083Z,2.00
2018-08-31T11:28:10.655Z,4.73
2018-08-31T11:30:39.327Z,2.60
2018-08-31T11:33:08.093Z,2.27
2018-08-31T11:35:36.784Z,4.43
2018-08-31T11:38:05.752Z,2.87
2018-08-31T11:40:35.332Z,2.53
2018-08-31T11:43:04.231Z,2.73
2018-08-31T11:45:33.069Z,3.60
2018-08-31T11:48:02.871Z,2.63
2018-08-31T11:50:31.505Z,3.27
2018-08-31T11:53:00.077Z,4.73
2018-08-31T11:55:28.797Z,2.93
2018-08-31T11:57:57.513Z,3.20
2018-08-31T12:00:26.585Z,3.07
2018-08-31T12:02:55.416Z,3.53
2018-08-31T12:05:24.548Z,4.50
2018-08-31T12:07:53.126Z,2.20
2018-08-31T12:10:22.380Z,3.47
2018-08-31T12:12:51.777Z,1.70
2018-08-31T12:15:20.516Z,3.60
2018-08-31T12:17:49.469Z,4.07
2018-08-31T12:20:18.896Z,4.33
2018-08-31T12:22:47.473Z,4.23
2018-08-31T12:25:16.959Z,1.83
2018-08-31T12:27:45.964Z,2.90
2018-08-31T12:30:15.882Z,3.83
2018-08-31T12:32:44.760Z,3.80
2018-08-31T12:35:13.712Z,4.37
2018-08-31T12:37:42.344Z,3.80
2018-08-31T12:40:11.191Z,3.67
2018-08-31T12:42:39.994Z,2.50
2018-08-31T12:45:08.711Z,2.63
2018-08-31T12:47:37.489Z,3.87
2018-08-31T12:50:06.215Z,2.60
2018-08-31T12:52:34.816Z,4.67
2018-08-31T12:55:03.387Z,3.67
2018-08-31T12:57:32.024Z,4.53
2018-08-31T13:00:02.631Z,4.07
2018-08-31T13:02:31.719Z,4.27
2018-08-31T13:05:01.207Z,2.70
2018-08-31T13:07:30.572Z,3.90
2018-08-31T13:09:59.273Z,3.10
2018-08-31T13:12:28.500Z,3.20
2018-08-31T13:14:57.030Z,3.97
2018-08-31T13:17:25.553Z,2.80
2018-08-31T13:19:56.450Z,1.90
2018-08-31T13:22:25.841Z,2.23
2018-08-31T13:24:54.929Z,2.53
2018-08-31T13:27:23.767Z,2.43
2018-08-31T13:29:52.377Z,2.63
2018-08-31T13:32:21.100Z,3.80
2018-08-31T13:34:50.430Z,4.23
2018-08-31T13:37:19.698Z,3.03
2018-08-31T13:39:48.584Z,3.30
2018-08-31T13:42:18.609Z,5.10
2018-08-31T13:44:48.607Z,1.97
2018-08-31T13:47:19.179Z,2.87
2018-08-31T13:49:50.682Z,3.03
2018-08-31T13:52:21.172Z,3.27
2018-08-31T13:54:51.075Z,2.40
2018-08-31T13:57:19.625Z,3.20
2018-08-31T13:59:50.040Z,2.37
2018-08-31T14:02:18.830Z,4.00
2018-08-31T14:04:47.429Z,2.83
2018-08-31T14:07:16.297Z,2.33
2018-08-31T14:09:48.661Z,3.27
2018-08-31T14:12:18.306Z,3.50
2018-08-31T14:14:48.238Z,2.50
2018-08-31T14:17:17.804Z,3.13
2018-08-31T14:19:48.726Z,2.33
2018-08-31T14:22:19.056Z,2.53
2018-08-31T14:24:48.842Z,2.57
2018-08-31T14:27:19.297Z,2.83
2018-08-31T14:29:48.726Z,3.67
2018-08-31T14:32:18.031Z,2.60
2018-08-31T14:34:47.274Z,5.87
2018-08-31T14:37:16.288Z,2.17
2018-08-31T14:39:45.075Z,3.87
2018-08-31T14:42:16.124Z,4.43
2018-08-31T14:44:45.434Z,2.83
2018-08-31T14:47:14.644Z,4.13
2018-08-31T14:49:43.470Z,3.60
2018-08-31T14:52:14.377Z,4.30
2018-08-31T14:54:44.416Z,2.60
2018-08-31T14:57:14.040Z,3.97
2018-08-31T14:59:42.668Z,3.67
2018-08-31T15:02:14.958Z,5.57
2018-08-31T15:04:46.408Z,2.90
2018-08-31T15:07:15.350Z,2.40
2018-08-31T15:09:46.767Z,4.60
2018-08-31T15:12:16.199Z,4.40
2018-08-31T15:14:45.717Z,4.17
2018-08-31T15:17:14.526Z,3.53
2018-08-31T15:19:44.720Z,3.13
2018-08-31T15:22:13.476Z,3.60
2018-08-31T15:24:42.749Z,2.90
2018-08-31T15:27:12.291Z,6.30
2018-08-31T15:29:41.771Z,3.33
2018-08-31T15:32:10.421Z,2.83
2018-08-31T15:34:39.021Z,2.73
2018-08-31T15:39:40.689Z,4.23
2018-08-31T15:42:09.148Z,2.97
2018-08-31T15:44:38.595Z,3.03
2018-08-31T15:47:07.334Z,2.90
2018-08-31T15:49:36.142Z,4.37
2018-08-31T15:52:04.722Z,3.20
2018-08-31T15:54:33.816Z,3.43
2018-08-31T15:57:02.803Z,2.43
2018-08-31T15:59:31.370Z,3.17
2018-08-31T16:01:59.971Z,3.43
2018-08-31T16:04:28.818Z,4.30
2018-08-31T16:06:57.537Z,2.93
2018-08-31T16:09:26.201Z,4.03
2018-08-31T16:11:54.412Z,3.33
2018-08-31T16:14:23.525Z,3.13
2018-08-31T16:16:52.162Z,4.10
2018-08-31T16:19:20.981Z,2.17
2018-08-31T16:21:49.638Z,2.77
2018-08-31T16:24:18.431Z,3.37
2018-08-31T16:26:47.293Z,2.70
2018-08-31T16:29:16.239Z,2.60
2018-08-31T16:31:44.864Z,3.00
2018-08-31T16:34:13.525Z,4.20
2018-08-31T16:36:42.233Z,2.90
2018-08-31T16:39:14.899Z,4.00
2018-08-31T16:41:43.275Z,3.33
2018-08-31T16:44:12.680Z,3.67
2018-08-31T16:46:42.778Z,4.07
2018-08-31T16:49:12.657Z,2.67
2018-08-31T16:51:44.013Z,2.40
2018-08-31T16:54:12.924Z,3.43
2018-08-31T16:56:42.409Z,2.90
2018-08-31T16:59:12.070Z,4.17
2018-08-31T17:01:40.724Z,3.10
2018-08-31T17:04:09.291Z,4.67
2018-08-31T17:06:37.865Z,4.53
2018-08-31T17:09:10.214Z,3.70
2018-08-31T17:11:39.086Z,2.80
2018-08-31T17:14:07.531Z,2.80
2018-08-31T17:16:36.255Z,5.30
2018-08-31T17:19:04.922Z,4.17
2018-08-31T17:21:33.417Z,4.20
2018-08-31T17:24:01.876Z,3.70
2018-08-31T17:26:36.391Z,5.33
2018-08-31T17:29:10.702Z,2.33
2018-08-31T17:31:44.986Z,2.60
2018-08-31T17:35:18.626Z,3.10
2018-08-31T17:37:47.405Z,5.20
2018-08-31T17:40:15.863Z,3.77
2018-08-31T17:42:44.320Z,4.13
2018-08-31T17:45:17.687Z,3.10
2018-08-31T17:47:47.039Z,4.50
2018-08-31T17:50:16.047Z,6.70
2018-08-31T17:52:47.170Z,4.33
2018-08-31T17:55:15.676Z,4.50
2018-08-31T17:57:44.434Z,5.03
2018-08-31T18:00:13.032Z,2.80
2018-08-31T18:02:42.719Z,3.00
2018-08-31T18:05:12.485Z,3.17
2018-08-31T18:07:41.078Z,3.73
2018-08-31T18:10:09.686Z,2.97
2018-08-31T18:12:39.722Z,2.40
2018-08-31T18:15:08.520Z,4.67
2018-08-31T18:17:37.781Z,3.57
2018-08-31T18:20:06.699Z,3.37
2018-08-31T18:22:35.484Z,3.33
2018-08-31T18:25:04.289Z,3.20
2018-08-31T18:27:33.410Z,5.83
2018-08-31T18:30:02.500Z,2.80
2018-08-31T18:32:31.251Z,4.07
2018-08-31T18:35:00.030Z,3.53
2018-08-31T18:37:28.532Z,4.97
2018-08-31T18:39:57.708Z,4.70
2018-08-31T18:42:26.213Z,4.10
2018-08-31T18:44:54.667Z,6.07
2018-08-31T18:47:23.191Z,5.90
2018-08-31T18:49:52.107Z,3.23
2018-08-31T18:52:27.656Z,4.70
2018-08-31T18:54:57.679Z,7.07
2018-08-31T18:57:26.189Z,4.20
2018-08-31T18:59:55.274Z,4.07
2018-08-31T19:02:24.032Z,5.33
2018-08-31T19:04:52.603Z,6.93
2018-08-31T19:07:21.495Z,3.67
2018-08-31T19:09:50.169Z,7.40
2018-08-31T19:12:19.602Z,5.63
2018-08-31T19:14:48.188Z,3.93
2018-08-31T19:17:16.761Z,6.17
2018-08-31T19:19:46.432Z,4.30
2018-08-31T19:22:15.381Z,3.77
2018-08-31T19:24:44.569Z,5.37
2018-08-31T19:27:12.807Z,2.63
2018-08-31T19:29:41.361Z,4.83
2018-08-31T19:32:10.135Z,3.83
2018-08-31T19:34:38.868Z,5.17
2018-08-31T19:37:08.535Z,4.63
2018-08-31T19:39:40.967Z,5.50
2018-08-31T19:42:09.654Z,4.03
2018-08-31T19:44:38.508Z,3.90
2018-08-31T19:47:08.208Z,3.00
2018-08-31T19:49:36.831Z,3.70
2018-08-31T19:52:05.416Z,5.57
2018-08-31T19:54:34.980Z,5.07
2018-08-31T19:57:03.153Z,7.03
2018-08-31T19:59:31.929Z,5.33
2018-08-31T20:02:00.511Z,2.97
2018-08-31T20:04:29.986Z,4.47
2018-08-31T20:06:58.527Z,4.03
2018-08-31T20:09:27.130Z,3.63
2018-08-31T20:11:55.667Z,3.07
2018-08-31T20:14:24.291Z,3.93
2018-08-31T20:16:52.885Z,5.33
2018-08-31T20:19:21.678Z,4.20
2018-08-31T20:21:50.412Z,5.10
2018-08-31T20:24:19.110Z,4.03
2018-08-31T20:26:47.290Z,3.30
2018-08-31T20:29:15.760Z,6.40
2018-08-31T20:31:44.336Z,4.10
2018-08-31T20:34:13.011Z,7.27
2018-08-31T20:36:42.337Z,5.47
2018-08-31T20:39:11.905Z,5.07
2018-08-31T20:41:40.698Z,4.87
2018-08-31T20:44:09.729Z,5.63
2018-08-31T20:46:38.138Z,4.37
2018-08-31T20:49:06.668Z,4.10
2018-08-31T20:51:35.210Z,3.77
2018-08-31T20:54:03.828Z,5.40
2018-08-31T20:56:32.037Z,4.60
2018-08-31T20:59:00.859Z,7.03
2018-08-31T21:01:29.423Z,4.97
2018-08-31T21:03:58.055Z,6.23
2018-08-31T21:06:26.795Z,6.50
2018-08-31T21:08:55.583Z,5.80
2018-08-31T21:11:24.076Z,3.90
2018-08-31T21:13:52.670Z,5.33
2018-08-31T21:16:21.886Z,4.83
2018-08-31T21:18:50.417Z,4.53
2018-08-31T21:21:19.014Z,6.17
2018-08-31T21:23:47.732Z,6.77
2018-08-31T21:26:17.109Z,6.27
2018-08-31T21:28:45.556Z,7.97
2018-08-31T21:31:14.128Z,6.40
2018-08-31T21:33:42.817Z,5.10
2018-08-31T21:36:11.571Z,8.30
2018-08-31T21:38:40.288Z,5.37
2018-08-31T21:41:08.787Z,4.93
2018-08-31T21:43:37.351Z,7.50
2018-08-31T21:46:06.995Z,7.30
2018-08-31T21:48:35.775Z,10.10
2018-08-31T21:51:05.136Z,5.03
2018-08-31T21:53:34.030Z,5.73
2018-08-31T21:56:02.607Z,7.03
2018-08-31T21:58:31.294Z,6.70
2018-08-31T22:01:05.683Z,9.27
2018-08-31T22:03:34.453Z,7.93
2018-08-31T22:06:03.250Z,4.50
2018-08-31T22:08:32.078Z,6.70
2018-08-31T22:11:00.788Z,6.83
2018-08-31T22:13:29.419Z,8.13
2018-08-31T22:15:58.877Z,7.07
2018-08-31T22:18:27.764Z,5.27
2018-08-31T22:20:56.573Z,5.60
2018-08-31T22:23:25.767Z,4.90
2018-08-31T22:25:54.318Z,6.50
2018-08-31T22:28:23.035Z,4.70
2018-08-31T22:30:51.693Z,7.47
2018-08-31T22:33:20.176Z,5.00
2018-08-31T22:35:48.700Z,5.03
2018-08-31T22:38:17.445Z,5.70
2018-08-31T22:40:46.141Z,5.33
2018-08-31T22:43:14.650Z,7.97
2018-08-31T22:45:44.053Z,7.37
2018-08-31T22:48:12.825Z,7.60
2018-08-31T22:50:42.144Z,4.73
2018-08-31T22:53:10.779Z,6.17
2018-08-31T22:55:40.560Z,6.83
2018-08-31T22:58:09.104Z,7.40
2018-08-31T23:00:37.608Z,6.77
2018-08-31T23:03:06.183Z,6.30
2018-08-31T23:05:35.265Z,7.77
2018-08-31T23:08:03.757Z,6.87
2018-08-31T23:10:32.988Z,5.10
2018-08-31T23:13:02.025Z,6.90
2018-08-31T23:15:30.554Z,5.90
2018-08-31T23:17:59.316Z,9.57
2018-08-31T23:20:27.900Z,7.17
2018-08-31T23:23:02.919Z,6.87
2018-08-31T23:25:37.347Z,8.73
2018-08-31T23:28:06.071Z,13.13
2018-08-31T23:30:35.008Z,6.53
2018-08-31T23:33:04.882Z,7.80
2018-08-31T23:35:33.403Z,6.37
2018-08-31T23:38:02.733Z,7.47
2018-08-31T23:40:31.278Z,6.53
2018-08-31T23:43:00.723Z,7.00
2018-08-31T23:45:29.578Z,6.70
2018-08-31T23:47:59.050Z,6.40
2018-08-31T23:50:28.232Z,7.87
2018-08-31T23:52:56.728Z,7.80
2018-08-31T23:55:26.233Z,6.70
2018-08-31T23:57:54.739Z,6.30
